Terminal Aerodrome Forecast
Issued by NWS

Home | Current Version | Previous Version | Text Only | Print | Product List | Glossary On
Versions: 1 2 3 4 5 6 7 8 9 10 11 12 13 14 15 16 17 18
000
FTUS44 KLZK 231100 RRA
TAFHOT
TAF
KHOT 231141Z 2312/2412 00000KT P6SM FEW002
     FM231400 27004KT P6SM FEW040
     FM231700 29006KT P6SM BKN050
     FM240000 VRB02KT P6SM SCT030
     FM240600 04002KT P6SM SKC=

USA.gov is the U.S. government's official web portal to all federal, state and local government web resources and services.